Lardo, Idaho
Current Conditions -  °F | °C
As of 6:51 PM on Saturday 20 Dec 2014 (Local Time) from KMYL Reporting Station
Light Snow Light Snow  
Wind Chill: 25°   Ceiling: 1100
Heat Index: 32°   Visibility: 1.2mi
Dew Point: 32°   Wind: 8mph
Humidity: 100%   Direction: 150°SSE
Pressure: 29.83"   Gusts: NA
Location:  44.8627°N, 115.492°W
Report Text: KMYL 210151Z AUTO 15007KT 1 1/4SM -SN BR OVC011 00/00 A2983 RMK AO2 SLP122 P0005 T00000000
Loading
Personal Weather Stations






























Interactive Weather Map New forecast layout! Learn more

10-Day Weather Forecast

Advertisements
Track Severe Weather on mobile